Time;durP1;ratioP1;P1;durP2;ratioP2;P2;SDS_P1;SDS_P2;PMS_P1;PMS_P2;Temp;Humidity;BMP_temperature;BMP_pressure;BME280_temperature;BME280_humidity;BME280_pressure;Samples;Min_cycle;Max_cycle;Signal;HPM_P1;HPM_P2
2021/03/29 00:01:49;;;;;;;7.13;1.77;;;18.50;40.00;;;;;;5074158;28;20024;-61
2021/03/29 00:04:15;;;;;;;4.35;1.65;;;18.50;40.00;;;;;;5074310;28;20060;-61
2021/03/29 00:06:43;;;;;;;4.97;1.77;;;18.50;40.00;;;;;;5073966;28;20106;-61
2021/03/29 00:09:09;;;;;;;6.97;2.05;;;18.50;40.00;;;;;;5073624;28;20067;-61
2021/03/29 00:11:37;;;;;;;3.05;1.25;;;18.50;40.00;;;;;;5074133;28;20131;-61
2021/03/29 00:14:03;;;;;;;5.97;1.70;;;18.50;40.00;;;;;;5073926;28;20101;-61
2021/03/29 00:16:31;;;;;;;4.05;1.58;;;18.50;40.00;;;;;;5073452;28;20499;-62
2021/03/29 00:18:57;;;;;;;5.50;1.50;;;18.50;40.00;;;;;;5074159;28;20032;-61
2021/03/29 00:21:22;;;;;;;5.38;1.80;;;18.50;40.00;;;;;;5074135;28;20041;-61
2021/03/29 00:23:48;;;;;;;5.35;2.05;;;18.50;40.00;;;;;;5079019;28;20037;-61
2021/03/29 00:26:14;;;;;;;3.58;1.42;;;18.50;40.00;;;;;;5079287;28;20017;-62
2021/03/29 00:28:40;;;;;;;6.10;2.05;;;18.50;40.00;;;;;;5079940;28;20408;-63
2021/03/29 00:31:08;;;;;;;9.18;2.28;;;18.50;40.00;;;;;;5082195;28;20027;-62
2021/03/29 00:33:35;;;;;;;7.38;1.83;;;18.50;40.00;;;;;;5075317;28;20021;-61
2021/03/29 00:36:01;;;;;;;5.47;1.55;;;18.50;40.00;;;;;;5075619;28;20024;-62
2021/03/29 00:38:28;;;;;;;4.43;1.40;;;18.40;40.00;;;;;;5076548;28;20032;-62
2021/03/29 00:41:05;;;;;;;5.07;1.70;;;18.40;40.00;;;;;;5074301;28;20032;-61
2021/03/29 00:43:33;;;;;;;4.57;1.70;;;18.40;40.00;;;;;;5074101;28;20044;-61
2021/03/29 00:46:01;;;;;;;6.30;1.85;;;18.50;40.00;;;;;;5074094;28;20115;-61
2021/03/29 00:48:29;;;;;;;6.00;2.00;;;18.40;40.00;;;;;;5073927;28;20093;-62
2021/03/29 00:51:04;;;;;;;5.15;1.60;;;18.40;40.00;;;;;;5073604;28;20116;-61
2021/03/29 00:53:30;;;;;;;5.60;1.70;;;18.50;40.00;;;;;;5073234;28;20035;-61
2021/03/29 00:55:57;;;;;;;5.28;1.88;;;18.40;40.00;;;;;;5073730;28;20020;-61
2021/03/29 00:58:25;;;;;;;6.78;1.77;;;18.40;39.90;;;;;;5073478;28;20536;-62
2021/03/29 01:01:18;;;;;;;6.85;1.98;;;18.40;40.00;;;;;;5073070;28;20047;-62
2021/03/29 01:03:47;;;;;;;7.50;2.15;;;18.40;39.90;;;;;;5073114;28;20036;-61
2021/03/29 01:06:17;;;;;;;5.80;2.00;;;18.40;40.00;;;;;;5073501;28;20021;-61
2021/03/29 01:08:51;;;;;;;5.70;1.80;;;18.40;40.00;;;;;;5073340;28;20028;-62
2021/03/29 01:11:21;;;;;;;;;;;18.40;39.90;;;;;;5075397;28;20060;-61
2021/03/29 01:13:55;;;;;;;4.43;1.90;;;18.40;39.90;;;;;;5076886;28;19904;-61
2021/03/29 01:16:22;;;;;;;3.65;1.10;;;18.40;39.90;;;;;;5077190;28;20035;-62
2021/03/29 01:18:57;;;;;;;4.85;1.35;;;18.40;39.90;;;;;;5077047;28;20115;-61
2021/03/29 01:21:43;;;;;;;4.95;1.58;;;18.40;39.90;;;;;;5077500;28;20141;-61
2021/03/29 01:24:37;;;;;;;6.20;1.65;;;18.40;39.90;;;;;;5078967;28;20437;-61
2021/03/29 01:27:04;;;;;;;5.22;1.30;;;18.40;39.90;;;;;;5080910;28;20029;-61
2021/03/29 01:29:31;;;;;;;3.75;1.58;;;18.40;39.90;;;;;;5077527;28;20024;-61
2021/03/29 01:32:01;;;;;;;6.00;1.50;;;18.40;39.90;;;;;;5077107;28;20033;-61
2021/03/29 01:34:29;;;;;;;3.90;1.40;;;18.40;39.90;;;;;;5076930;28;20029;-61
2021/03/29 01:36:56;;;;;;;4.90;1.60;;;18.40;39.90;;;;;;5077073;28;20028;-61
2021/03/29 01:39:22;;;;;;;3.42;1.50;;;18.40;39.90;;;;;;5076877;28;20028;-61
2021/03/29 01:41:49;;;;;;;5.70;2.05;;;18.40;39.90;;;;;;5076597;28;20035;-61
2021/03/29 01:44:15;;;;;;;4.80;1.60;;;18.40;39.90;;;;;;5076891;28;20028;-61
2021/03/29 01:46:41;;;;;;;6.50;1.65;;;18.40;39.90;;;;;;5076626;28;20036;-61
2021/03/29 01:49:07;;;;;;;3.38;1.30;;;18.40;39.90;;;;;;5083414;28;20148;-61
2021/03/29 01:51:33;;;;;;;6.90;1.60;;;18.40;39.90;;;;;;5076463;28;20138;-61
2021/03/29 01:53:59;;;;;;;5.05;1.70;;;18.40;39.80;;;;;;5076654;28;20055;-62
2021/03/29 01:56:25;;;;;;;8.43;1.70;;;18.40;39.90;;;;;;5076603;28;20111;-61
2021/03/29 01:58:51;;;;;;;3.95;1.50;;;18.40;39.90;;;;;;5076160;28;20059;-61
2021/03/29 02:01:16;;;;;;;4.63;1.40;;;18.40;39.90;;;;;;5076305;28;20063;-61
2021/03/29 02:03:43;;;;;;;5.13;1.85;;;18.40;39.90;;;;;;5074988;28;20036;-61
2021/03/29 02:06:10;;;;;;;4.45;1.40;;;18.40;39.90;;;;;;5091702;28;20020;-61
2021/03/29 02:08:38;;;;;;;5.32;1.52;;;18.40;39.80;;;;;;5076186;28;20032;-61
2021/03/29 02:11:04;;;;;;;4.88;1.98;;;18.40;39.90;;;;;;5076049;28;20024;-62
2021/03/29 02:13:33;;;;;;;6.43;1.67;;;18.40;39.80;;;;;;5075692;28;20024;-61
2021/03/29 02:16:08;;;;;;;5.57;1.70;;;18.40;39.80;;;;;;5076146;28;20074;-62
2021/03/29 02:18:39;;;;;;;4.55;1.40;;;18.40;39.80;;;;;;5075870;28;20031;-61
2021/03/29 02:21:08;;;;;;;4.15;1.38;;;18.40;39.80;;;;;;5075624;28;20044;-61
2021/03/29 02:23:34;;;;;;;4.63;1.80;;;18.40;39.80;;;;;;5075000;28;20040;-61
2021/03/29 02:26:01;;;;;;;4.90;1.67;;;18.40;39.80;;;;;;5075547;28;20031;-61
2021/03/29 02:28:27;;;;;;;4.85;1.63;;;18.40;39.80;;;;;;5075667;28;20065;-61
2021/03/29 02:30:53;;;;;;;4.65;1.60;;;18.40;39.80;;;;;;5075781;28;20033;-61
2021/03/29 02:33:19;;;;;;;4.28;1.42;;;18.30;39.80;;;;;;5075692;28;20038;-61
2021/03/29 02:35:46;;;;;;;4.43;1.70;;;18.30;39.80;;;;;;5075686;28;20372;-62
2021/03/29 02:38:15;;;;;;;7.05;1.88;;;18.40;39.80;;;;;;5075279;28;20464;-61
2021/03/29 02:40:42;;;;;;;4.40;1.55;;;18.30;39.80;;;;;;5075666;28;20094;-60
2021/03/29 02:43:08;;;;;;;5.40;1.48;;;18.40;39.80;;;;;;5075464;28;20063;-61
2021/03/29 02:45:36;;;;;;;5.13;1.85;;;18.30;39.80;;;;;;5075467;28;20024;-61
2021/03/29 02:48:07;;;;;;;3.92;1.70;;;18.30;39.80;;;;;;5075427;28;20059;-61
2021/03/29 02:50:34;;;;;;;5.30;1.42;;;18.40;39.80;;;;;;5075260;28;20096;-61
2021/03/29 02:53:04;;;;;;;3.72;1.17;;;18.30;39.80;;;;;;5075153;28;20144;-61
2021/03/29 02:55:31;;;;;;;6.15;1.55;;;18.30;39.80;;;;;;5075368;28;20025;-60
2021/03/29 02:58:01;;;;;;;7.18;1.95;;;18.30;39.80;;;;;;5075368;28;20107;-62
2021/03/29 03:00:27;;;;;;;4.90;1.48;;;18.30;39.80;;;;;;5074789;28;20031;-61
2021/03/29 03:02:59;;;;;;;4.68;1.63;;;18.30;39.80;;;;;;5075146;28;20037;-61
2021/03/29 03:05:27;;;;;;;3.38;1.48;;;18.30;39.80;;;;;;5075130;28;20030;-61
2021/03/29 03:07:54;;;;;;;5.05;1.88;;;18.30;39.80;;;;;;5074896;28;20050;-61
2021/03/29 03:10:20;;;;;;;4.40;1.50;;;18.30;39.80;;;;;;5074881;28;20029;-61
2021/03/29 03:12:47;;;;;;;3.70;1.38;;;18.30;39.80;;;;;;5075086;28;20029;-61
2021/03/29 03:15:16;;;;;;;4.97;1.77;;;18.30;39.80;;;;;;5073353;28;20425;-61
2021/03/29 03:17:42;;;;;;;4.07;1.33;;;18.30;39.80;;;;;;5075092;28;20036;-61
2021/03/29 03:20:09;;;;;;;4.72;1.55;;;18.30;39.70;;;;;;5075759;28;20053;-61
2021/03/29 03:22:34;;;;;;;6.15;1.83;;;18.30;39.70;;;;;;5075524;28;20032;-61
2021/03/29 03:25:00;;;;;;;5.22;1.65;;;18.30;39.80;;;;;;5074454;28;20448;-61
2021/03/29 03:27:26;;;;;;;5.95;2.03;;;18.30;39.80;;;;;;5074375;28;20025;-61
2021/03/29 03:29:51;;;;;;;4.13;1.50;;;18.30;39.70;;;;;;5074624;28;20024;-62
2021/03/29 03:32:17;;;;;;;4.32;1.23;;;18.30;39.70;;;;;;5074494;28;20037;-62
2021/03/29 03:34:44;;;;;;;5.55;1.50;;;18.30;39.70;;;;;;5074049;28;20021;-62
2021/03/29 03:37:17;;;;;;;4.50;1.50;;;18.30;39.70;;;;;;5072910;28;20392;-61
2021/03/29 03:39:44;;;;;;;3.50;1.50;;;18.30;39.70;;;;;;5074607;28;20020;-62
2021/03/29 03:42:12;;;;;;;8.00;1.52;;;18.30;39.70;;;;;;5073905;28;20476;-62
2021/03/29 03:44:38;;;;;;;3.65;1.35;;;18.30;39.70;;;;;;5073935;28;20035;-61
2021/03/29 03:47:05;;;;;;;4.93;1.40;;;18.30;39.70;;;;;;5074491;28;20371;-62
2021/03/29 03:49:32;;;;;;;4.82;1.65;;;18.30;39.70;;;;;;5074135;28;20060;-62
2021/03/29 03:51:58;;;;;;;5.00;1.27;;;18.30;39.70;;;;;;5073963;28;20032;-62
2021/03/29 03:54:25;;;;;;;4.03;1.40;;;18.30;39.70;;;;;;5074264;28;20079;-61
2021/03/29 03:56:52;;;;;;;3.05;1.33;;;18.30;39.70;;;;;;5074357;28;20024;-61
2021/03/29 03:59:17;;;;;;;4.07;1.35;;;18.30;39.70;;;;;;5073799;28;20448;-62
2021/03/29 04:02:03;;;;;;;4.03;1.40;;;18.30;39.70;;;;;;5074432;28;20107;-62
2021/03/29 04:04:29;;;;;;;4.28;1.42;;;18.30;39.70;;;;;;5073454;28;20122;-62
2021/03/29 04:06:57;;;;;;;5.25;1.65;;;18.20;39.70;;;;;;5073986;28;20058;-61
2021/03/29 04:09:30;;;;;;;4.68;1.60;;;18.30;39.70;;;;;;5073474;28;20536;-62
2021/03/29 04:11:56;;;;;;;4.55;1.50;;;18.30;39.70;;;;;;5073727;28;20029;-61
2021/03/29 04:14:22;;;;;;;3.67;1.25;;;18.30;39.70;;;;;;5073828;28;20388;-60
2021/03/29 04:16:47;;;;;;;3.83;1.17;;;18.30;39.70;;;;;;5073920;28;20100;-62
2021/03/29 04:19:13;;;;;;;4.05;1.40;;;18.30;39.70;;;;;;5073583;28;20028;-62
2021/03/29 04:21:38;;;;;;;5.10;1.85;;;18.30;39.70;;;;;;5073548;28;20506;-61
2021/03/29 04:24:04;;;;;;;4.35;1.40;;;18.30;39.70;;;;;;5073494;28;20032;-62
2021/03/29 04:26:30;;;;;;;4.93;1.30;;;18.30;39.60;;;;;;5073686;28;20533;-61
2021/03/29 04:28:55;;;;;;;3.92;1.38;;;18.30;39.60;;;;;;5073337;28;20020;-61
2021/03/29 04:31:21;;;;;;;4.82;1.60;;;18.40;39.60;;;;;;5073441;28;20480;-62
2021/03/29 04:33:46;;;;;;;4.10;1.42;;;18.30;39.60;;;;;;5073556;28;20468;-62
2021/03/29 04:36:12;;;;;;;5.07;1.33;;;18.30;39.60;;;;;;5073568;28;20381;-61
2021/03/29 04:38:37;;;;;;;4.63;1.52;;;18.30;39.60;;;;;;5073508;28;20021;-61
2021/03/29 04:41:05;;;;;;;3.33;1.20;;;18.40;39.60;;;;;;5073309;28;20035;-62
2021/03/29 04:43:31;;;;;;;3.42;1.15;;;18.40;39.60;;;;;;5073315;28;20041;-61
2021/03/29 04:45:56;;;;;;;3.88;1.58;;;18.40;39.60;;;;;;5072644;28;20499;-61
2021/03/29 04:48:22;;;;;;;5.57;1.50;;;18.40;39.60;;;;;;5073207;28;20404;-62
2021/03/29 04:50:47;;;;;;;3.15;1.02;;;18.40;39.60;;;;;;5073462;28;20037;-61
2021/03/29 04:53:13;;;;;;;6.40;1.52;;;18.40;39.60;;;;;;5073628;28;20032;-61
2021/03/29 04:55:39;;;;;;;4.40;1.30;;;18.40;39.60;;;;;;5075354;28;20433;-61
2021/03/29 04:58:04;;;;;;;4.43;1.58;;;18.40;39.60;;;;;;5075226;28;20033;-62
2021/03/29 05:00:30;;;;;;;3.45;1.20;;;18.40;39.60;;;;;;5074128;28;20036;-61
2021/03/29 05:02:55;;;;;;;4.40;1.35;;;18.40;39.60;;;;;;5073017;28;20041;-62
2021/03/29 05:05:21;;;;;;;4.10;1.40;;;18.40;39.60;;;;;;5073263;28;20098;-62
2021/03/29 05:07:46;;;;;;;3.55;1.42;;;18.40;39.60;;;;;;5073631;28;20050;-61
2021/03/29 05:10:13;;;;;;;3.80;1.27;;;18.40;39.60;;;;;;5073263;28;20021;-61
2021/03/29 05:12:39;;;;;;;3.38;1.17;;;18.40;39.60;;;;;;5073352;28;20032;-61
2021/03/29 05:15:08;;;;;;;3.33;1.33;;;18.40;39.60;;;;;;5074664;28;20508;-61
2021/03/29 05:17:34;;;;;;;3.55;1.20;;;18.40;39.60;;;;;;5079340;28;20082;-61
2021/03/29 05:20:00;;;;;;;4.40;1.52;;;18.40;39.50;;;;;;5077333;28;20044;-62
2021/03/29 05:22:26;;;;;;;5.05;1.42;;;18.40;39.50;;;;;;5076365;28;20028;-62
2021/03/29 05:24:51;;;;;;;4.70;1.30;;;18.40;39.50;;;;;;5074300;28;20029;-61
2021/03/29 05:27:17;;;;;;;3.80;1.33;;;18.40;39.60;;;;;;5075858;28;20034;-61
2021/03/29 05:29:45;;;;;;;3.67;1.23;;;18.40;39.50;;;;;;5075342;28;20105;-61
2021/03/29 05:32:15;;;;;;;5.75;1.55;;;18.40;39.50;;;;;;5074090;28;20020;-61
2021/03/29 05:34:42;;;;;;;3.38;1.20;;;18.40;39.50;;;;;;5073128;28;20024;-61
2021/03/29 05:37:08;;;;;;;3.70;1.17;;;18.40;39.60;;;;;;5073394;28;20032;-61
2021/03/29 05:39:34;;;;;;;4.32;1.25;;;18.40;39.50;;;;;;5072891;28;20028;-61
2021/03/29 05:41:59;;;;;;;3.92;1.45;;;18.40;39.50;;;;;;5072993;28;20028;-62
2021/03/29 05:44:25;;;;;;;6.05;1.85;;;18.40;39.50;;;;;;5073098;28;20028;-61
2021/03/29 05:46:51;;;;;;;4.28;1.45;;;18.40;39.50;;;;;;5072593;28;20029;-64
2021/03/29 05:49:17;;;;;;;4.72;1.55;;;18.40;39.50;;;;;;5067320;28;20032;-61
2021/03/29 05:51:43;;;;;;;4.05;1.50;;;18.50;39.50;;;;;;5063897;28;20040;-62
2021/03/29 05:54:09;;;;;;;6.20;1.25;;;18.40;39.50;;;;;;5056402;28;20033;-62
2021/03/29 05:56:37;;;;;;;2.97;1.30;;;18.50;39.50;;;;;;5060375;28;20036;-61
2021/03/29 05:59:07;;;;;;;3.55;1.20;;;18.50;39.50;;;;;;5073965;28;20024;-62
2021/03/29 06:01:45;;;;;;;6.72;1.38;;;18.50;39.50;;;;;;5074991;28;20111;-63
2021/03/29 06:04:12;;;;;;;3.20;1.30;;;18.50;39.50;;;;;;5074978;28;20118;-61
2021/03/29 06:06:38;;;;;;;3.63;1.10;;;18.50;39.50;;;;;;5066777;28;20031;-62
2021/03/29 06:09:05;;;;;;;3.42;1.20;;;18.50;39.50;;;;;;5069584;28;20032;-62
2021/03/29 06:11:38;;;;;;;5.30;1.70;;;18.50;39.50;;;;;;5055961;28;20028;-62
2021/03/29 06:14:06;;;;;;;2.22;1.05;;;18.50;39.50;;;;;;5055053;28;20477;-61
2021/03/29 06:17:10;;;;;;;3.70;1.33;;;18.50;39.50;;;;;;5059447;28;20038;-61
2021/03/29 06:19:44;;;;;;;5.28;1.67;;;18.50;39.40;;;;;;5073001;28;20112;-61
2021/03/29 06:22:12;;;;;;;3.15;1.10;;;18.50;39.40;;;;;;5074491;28;20024;-61
2021/03/29 06:25:04;;;;;;;4.80;1.33;;;18.50;39.50;;;;;;5064865;28;20043;-60
2021/03/29 06:27:55;;;;;;;3.45;1.00;;;18.50;39.50;;;;;;5054788;28;20056;-61
2021/03/29 06:30:26;;;;;;;5.95;1.40;;;18.50;39.40;;;;;;5058630;28;20036;-61
2021/03/29 06:32:59;;;;;;;6.45;1.40;;;18.50;39.50;;;;;;5067425;28;20414;-63
2021/03/29 06:35:32;;;;;;;4.15;1.25;;;18.50;39.50;;;;;;5075676;28;20028;-62
2021/03/29 06:38:09;;;;;;;4.05;1.30;;;18.50;39.50;;;;;;5067364;28;20037;-61
2021/03/29 06:40:37;;;;;;;3.45;1.23;;;18.50;39.50;;;;;;5065949;28;20017;-61
2021/03/29 06:43:35;;;;;;;3.92;1.23;;;18.50;39.50;;;;;;5078703;28;20035;-61
2021/03/29 06:46:06;;;;;;;4.22;1.25;;;18.60;39.60;;;;;;5032816;28;20048;-61
2021/03/29 06:48:36;;;;;;;4.55;1.42;;;18.60;39.60;;;;;;5075045;28;20021;-61
2021/03/29 06:51:07;;;;;;;5.47;1.52;;;18.60;39.60;;;;;;5061660;28;20033;-61
2021/03/29 06:53:33;;;;;;;4.78;1.50;;;18.60;39.60;;;;;;5064277;28;20033;-61
2021/03/29 06:56:25;;;;;;;4.88;1.50;;;18.60;39.60;;;;;;5054195;28;20040;-62
2021/03/29 06:58:52;;;;;;;4.93;1.35;;;18.60;39.60;;;;;;5051634;28;20439;-60
2021/03/29 07:01:22;;;;;;;3.75;1.17;;;18.60;39.60;;;;;;5055830;28;20098;-61
2021/03/29 07:03:49;;;;;;;4.15;1.10;;;18.60;39.60;;;;;;5073337;28;20076;-62
2021/03/29 07:06:17;;;;;;;3.42;1.25;;;18.60;39.50;;;;;;5073717;28;20035;-62
2021/03/29 07:08:47;;;;;;;5.88;1.58;;;18.60;39.50;;;;;;5072546;28;20133;-60
2021/03/29 07:11:15;;;;;;;4.00;1.20;;;18.70;39.50;;;;;;5056730;28;20528;-60
2021/03/29 07:13:41;;;;;;;5.00;1.38;;;18.70;39.50;;;;;;5058123;28;20071;-63
2021/03/29 07:16:08;;;;;;;3.03;1.00;;;18.70;39.50;;;;;;5071406;28;20028;-62
2021/03/29 07:18:35;;;;;;;2.65;1.00;;;18.70;39.50;;;;;;5062337;28;20041;-61
2021/03/29 07:21:06;;;;;;;4.70;1.38;;;18.70;39.50;;;;;;5058120;28;20040;-61
2021/03/29 07:23:32;;;;;;;2.20;1.17;;;18.80;39.50;;;;;;5075417;28;20080;-60
2021/03/29 07:25:58;;;;;;;3.42;1.05;;;18.80;39.40;;;;;;5071524;28;20025;-62
2021/03/29 07:28:28;;;;;;;3.08;1.13;;;18.80;39.50;;;;;;5071542;28;20089;-60
2021/03/29 07:30:59;;;;;;;3.05;1.05;;;18.80;39.40;;;;;;5068211;28;20036;-61
2021/03/29 07:33:25;;;;;;;4.28;1.42;;;18.80;39.40;;;;;;5080336;28;20067;-63
2021/03/29 07:35:56;;;;;;;4.60;1.30;;;18.80;39.40;;;;;;5065142;28;20021;-63
2021/03/29 07:38:26;;;;;;;4.00;1.10;;;18.90;39.50;;;;;;5062172;28;20025;-62
2021/03/29 07:40:55;;;;;;;3.25;1.10;;;18.90;39.40;;;;;;5060390;28;20063;-62
2021/03/29 07:43:23;;;;;;;1.80;1.00;;;18.90;39.50;;;;;;5070463;28;20557;-62
2021/03/29 07:46:03;;;;;;;4.82;1.00;;;18.90;39.50;;;;;;5060609;28;20037;-61
2021/03/29 07:48:36;;;;;;;5.43;1.40;;;18.90;39.50;;;;;;5053396;28;20032;-61
2021/03/29 07:51:14;;;;;;;5.20;1.33;;;18.90;39.50;;;;;;5065295;28;20104;-61
2021/03/29 07:53:43;;;;;;;4.55;1.50;;;18.90;39.60;;;;;;5073983;28;20028;-61
2021/03/29 07:56:11;;;;;;;10.32;3.58;;;18.90;39.60;;;;;;5072839;28;20103;-61
2021/03/29 07:58:47;;;;;;;3.05;0.93;;;18.90;39.60;;;;;;5073122;28;20082;-61
2021/03/29 08:01:14;;;;;;;4.80;1.40;;;18.90;39.50;;;;;;5078903;28;20024;-61
2021/03/29 08:03:44;;;;;;;6.28;1.08;;;18.90;39.50;;;;;;5077523;28;20447;-61
2021/03/29 08:06:43;;;;;;;4.85;1.30;;;19.00;39.50;;;;;;5073038;28;20111;-61
2021/03/29 08:09:11;;;;;;;5.05;1.42;;;19.00;39.50;;;;;;5072757;28;20025;-61
2021/03/29 08:12:22;;;;;;;4.50;1.45;;;19.00;39.50;;;;;;5073042;28;20115;-61
2021/03/29 08:14:53;;;;;;;5.95;1.20;;;19.00;39.50;;;;;;5053659;28;20378;-60
2021/03/29 08:17:46;;;;;;;2.85;0.93;;;19.00;39.50;;;;;;5073998;28;20086;-62
2021/03/29 08:20:24;;;;;;;4.13;1.00;;;19.00;39.50;;;;;;5073106;28;20047;-61
2021/03/29 08:23:26;;;;;;;2.60;1.00;;;19.00;39.50;;;;;;5073679;28;20051;-61
2021/03/29 08:26:35;;;;;;;6.10;1.70;;;19.00;39.50;;;;;;5061907;28;20358;-61
2021/03/29 08:29:07;;;;;;;2.42;1.20;;;19.00;39.50;;;;;;5055892;28;20503;-63
2021/03/29 08:32:03;;;;;;;7.15;1.40;;;19.00;39.50;;;;;;5071736;28;20027;-61
2021/03/29 08:34:32;;;;;;;6.32;1.30;;;19.00;39.50;;;;;;5076691;28;20133;-61
2021/03/29 08:37:06;;;;;;;4.43;1.30;;;19.00;39.50;;;;;;5075668;28;20050;-61
2021/03/29 08:39:34;;;;;;;3.80;1.23;;;19.00;39.50;;;;;;5075424;28;20040;-61
2021/03/29 08:42:01;;;;;;;3.92;1.25;;;19.00;39.50;;;;;;5075637;28;20029;-61
2021/03/29 08:44:28;;;;;;;4.40;1.38;;;19.00;39.50;;;;;;5072427;28;20442;-61
2021/03/29 08:46:55;;;;;;;7.97;1.38;;;19.00;39.50;;;;;;5070805;28;20024;-69
2021/03/29 08:49:21;;;;;;;4.43;1.25;;;19.00;39.60;;;;;;5068567;28;20017;-67
2021/03/29 08:51:51;;;;;;;3.92;1.30;;;19.10;39.60;;;;;;5065261;28;20388;-72
2021/03/29 08:54:19;;;;;;;4.43;1.25;;;19.10;39.50;;;;;;5056419;28;20032;-69
2021/03/29 08:56:50;;;;;;;4.63;1.27;;;19.10;39.50;;;;;;5076367;28;20021;-71
2021/03/29 08:59:16;;;;;;;3.00;1.35;;;19.10;39.40;;;;;;5063752;28;20020;-69
2021/03/29 09:01:41;;;;;;;3.33;1.10;;;19.10;39.50;;;;;;5068772;28;20498;-69
2021/03/29 09:04:09;;;;;;;6.78;1.40;;;19.10;39.40;;;;;;5066007;28;20341;-69
2021/03/29 09:06:35;;;;;;;3.42;1.30;;;19.10;39.50;;;;;;5070654;28;20059;-69
2021/03/29 09:09:10;;;;;;;5.25;1.20;;;19.00;39.50;;;;;;5053489;28;20122;-69
2021/03/29 09:11:43;;;;;;;3.00;1.25;;;19.10;39.60;;;;;;5066446;28;20028;-68
2021/03/29 09:14:10;;;;;;;8.10;1.85;;;19.10;39.60;;;;;;5056946;28;20512;-68
2021/03/29 09:16:39;;;;;;;4.05;1.20;;;19.10;39.50;;;;;;5068025;28;20036;-68
2021/03/29 09:19:16;;;;;;;6.43;1.30;;;19.10;39.60;;;;;;5066994;28;20489;-68
2021/03/29 09:21:42;;;;;;;3.55;1.20;;;19.10;39.60;;;;;;5071583;28;20041;-68
2021/03/29 09:24:20;;;;;;;6.10;1.40;;;19.10;39.60;;;;;;5053494;28;20132;-68
2021/03/29 09:27:02;;;;;;;3.90;1.17;;;19.10;39.60;;;;;;5078572;28;20032;-69
2021/03/29 09:29:38;;;;;;;4.03;1.63;;;19.10;39.60;;;;;;5067542;28;20028;-69
2021/03/29 09:32:12;;;;;;;5.10;1.17;;;19.10;39.60;;;;;;5054945;28;20029;-68
2021/03/29 09:34:38;;;;;;;4.05;1.20;;;19.10;39.60;;;;;;5056982;28;20025;-69
2021/03/29 09:37:14;;;;;;;5.45;1.50;;;19.10;39.70;;;;;;5056642;28;20039;-70
2021/03/29 09:39:40;;;;;;;4.15;1.20;;;19.10;39.60;;;;;;5055448;28;20029;-68
2021/03/29 09:42:06;;;;;;;4.05;1.20;;;19.10;39.60;;;;;;5067252;28;20043;-71
2021/03/29 09:44:33;;;;;;;3.58;1.40;;;19.20;39.60;;;;;;5073507;28;20037;-70
2021/03/29 09:47:00;;;;;;;3.78;1.10;;;19.20;39.60;;;;;;5077780;28;20479;-68
2021/03/29 09:49:26;;;;;;;5.15;1.15;;;19.20;39.60;;;;;;5074742;28;20036;-69
2021/03/29 09:52:04;;;;;;;3.38;1.20;;;19.20;39.60;;;;;;5061674;28;20083;-67
2021/03/29 09:54:33;;;;;;;3.05;1.10;;;19.20;39.60;;;;;;5054701;28;20480;-68
2021/03/29 09:57:17;;;;;;;4.13;1.30;;;19.20;39.50;;;;;;5074704;28;20694;-68
2021/03/29 09:59:44;;;;;;;5.88;0.98;;;19.20;39.60;;;;;;5058619;28;20112;-69
2021/03/29 10:02:24;;;;;;;3.50;1.02;;;19.20;39.50;;;;;;5070409;28;20036;-69
2021/03/29 10:05:03;;;;;;;4.78;1.30;;;19.30;39.50;;;;;;5054811;28;20079;-67
2021/03/29 10:07:29;;;;;;;4.65;1.13;;;19.30;39.50;;;;;;5072923;28;20024;-68
2021/03/29 10:09:59;;;;;;;3.33;1.02;;;19.30;39.40;;;;;;5074087;28;20043;-69
2021/03/29 10:12:29;;;;;;;4.50;1.30;;;19.30;39.40;;;;;;5056489;28;20057;-69
2021/03/29 10:15:11;;;;;;;2.60;1.10;;;19.30;39.40;;;;;;5067210;28;20511;-71
2021/03/29 10:17:37;;;;;;;5.60;1.30;;;19.40;39.40;;;;;;5074857;28;20020;-69
2021/03/29 10:20:23;;;;;;;4.97;1.15;;;19.40;39.40;;;;;;5061915;28;20066;-70
2021/03/29 10:22:48;;;;;;;4.80;1.25;;;19.40;39.40;;;;;;5067834;28;20057;-70
2021/03/29 10:25:19;;;;;;;4.35;1.10;;;19.40;39.40;;;;;;5069531;28;20103;-70
2021/03/29 10:27:56;;;;;;;3.47;1.40;;;19.50;39.30;;;;;;5074288;28;20575;-70
2021/03/29 10:30:27;;;;;;;3.17;1.08;;;19.50;39.30;;;;;;5074474;28;20059;-69
2021/03/29 10:32:57;;;;;;;4.05;1.00;;;19.50;39.40;;;;;;5061676;28;20431;-69
2021/03/29 10:35:25;;;;;;;5.28;1.33;;;19.50;39.30;;;;;;5065838;28;20047;-70
2021/03/29 10:37:51;;;;;;;4.80;1.27;;;19.50;39.30;;;;;;5072111;28;20024;-70
2021/03/29 10:40:19;;;;;;;3.83;1.08;;;19.50;39.30;;;;;;5074739;28;20025;-69
2021/03/29 10:42:45;;;;;;;2.70;1.10;;;19.50;39.30;;;;;;5074048;28;20036;-69
2021/03/29 10:45:13;;;;;;;3.92;1.27;;;19.60;39.30;;;;;;5071620;28;20029;-70
2021/03/29 10:47:40;;;;;;;4.72;1.23;;;19.60;39.30;;;;;;5055989;28;20048;-70
2021/03/29 10:50:07;;;;;;;5.32;1.10;;;19.60;39.20;;;;;;5054681;28;20035;-71
2021/03/29 10:52:33;;;;;;;3.28;1.05;;;19.60;39.20;;;;;;5068171;28;20032;-70
2021/03/29 10:54:58;;;;;;;2.35;1.13;;;19.60;39.20;;;;;;5067613;28;20469;-71
2021/03/29 10:57:24;;;;;;;4.55;1.00;;;19.70;39.10;;;;;;5082735;28;20109;-69
2021/03/29 10:59:50;;;;;;;3.92;1.00;;;19.70;39.10;;;;;;5053841;28;20457;-68
2021/03/29 11:02:15;;;;;;;2.30;1.00;;;19.80;39.00;;;;;;5070687;28;20562;-69
2021/03/29 11:04:41;;;;;;;4.90;1.10;;;19.80;39.00;;;;;;5073329;28;20362;-68
2021/03/29 11:07:06;;;;;;;4.00;1.15;;;19.90;39.00;;;;;;5070928;28;20468;-68
2021/03/29 11:09:32;;;;;;;4.18;1.30;;;19.90;39.00;;;;;;5090792;28;20028;-68
2021/03/29 11:11:58;;;;;;;3.05;0.98;;;19.90;38.90;;;;;;5084884;28;20031;-66
2021/03/29 11:14:23;;;;;;;4.43;1.10;;;19.90;38.80;;;;;;5058283;28;20025;-70
2021/03/29 11:16:51;;;;;;;4.25;1.10;;;20.00;38.70;;;;;;5064334;28;20165;-69
2021/03/29 11:19:18;;;;;;;2.45;0.80;;;20.00;38.70;;;;;;5066543;28;20040;-69
2021/03/29 11:21:44;;;;;;;3.40;1.10;;;20.00;38.70;;;;;;5059757;28;20055;-70
2021/03/29 11:24:11;;;;;;;3.90;0.90;;;20.10;38.70;;;;;;5058198;28;20036;-70
2021/03/29 11:26:37;;;;;;;4.47;1.17;;;20.10;38.60;;;;;;5063537;28;20463;-73
2021/03/29 11:29:02;;;;;;;5.32;0.80;;;20.20;38.60;;;;;;5084529;28;20107;-70
2021/03/29 11:31:28;;;;;;;3.85;1.08;;;20.20;38.60;;;;;;5063099;28;20043;-70
2021/03/29 11:33:54;;;;;;;8.20;1.77;;;20.20;38.50;;;;;;5060653;28;20028;-70
2021/03/29 11:36:19;;;;;;;5.93;1.55;;;20.20;38.40;;;;;;5058228;28;20017;-70
2021/03/29 11:38:45;;;;;;;2.50;1.02;;;20.30;38.40;;;;;;5069390;28;20025;-69
2021/03/29 11:41:12;;;;;;;6.07;1.13;;;20.40;38.20;;;;;;5069146;28;20024;-71
2021/03/29 11:43:37;;;;;;;4.05;1.17;;;20.40;38.20;;;;;;5071997;28;20028;-73
2021/03/29 11:46:03;;;;;;;2.95;0.90;;;20.50;38.10;;;;;;5052834;28;20036;-71
2021/03/29 11:48:28;;;;;;;5.85;1.20;;;20.50;38.10;;;;;;5054454;28;20021;-69
2021/03/29 11:50:54;;;;;;;3.60;1.10;;;20.50;38.10;;;;;;5057714;28;20081;-72
2021/03/29 11:53:19;;;;;;;3.60;0.90;;;20.60;37.90;;;;;;5053443;28;20102;-76
2021/03/29 11:55:46;;;;;;;2.72;0.90;;;20.60;37.80;;;;;;5056215;28;20052;-72
2021/03/29 11:58:12;;;;;;;3.83;0.98;;;20.70;37.70;;;;;;5065748;28;20025;-71
2021/03/29 12:13:42;;;;;;;4.43;1.40;;;21.10;37.40;;;;;;5052545;28;20024;-72
2021/03/29 12:16:08;;;;;;;4.35;1.20;;;21.20;37.40;;;;;;5052648;28;20029;-72
2021/03/29 12:21:01;;;;;;;3.00;1.05;;;21.30;37.40;;;;;;5068413;28;20044;-70
2021/03/29 12:23:28;;;;;;;4.07;1.10;;;21.30;37.40;;;;;;5065753;28;20041;-71
2021/03/29 12:25:56;;;;;;;3.35;1.00;;;21.40;37.40;;;;;;5052562;28;20052;-72
2021/03/29 12:28:22;;;;;;;2.78;1.20;;;21.50;37.30;;;;;;5064732;28;20028;-72
2021/03/29 12:30:48;;;;;;;4.05;1.10;;;21.50;37.30;;;;;;5067654;28;20094;-72
2021/03/29 12:33:15;;;;;;;4.28;1.50;;;21.50;37.20;;;;;;5054135;28;20032;-72
2021/03/29 12:35:41;;;;;;;3.22;1.02;;;21.60;37.20;;;;;;5052804;28;20037;-69
2021/03/29 12:38:08;;;;;;;5.82;1.30;;;21.60;37.20;;;;;;5055860;28;20035;-70
2021/03/29 12:40:36;;;;;;;4.00;1.10;;;21.60;37.20;;;;;;5052981;28;20071;-70
2021/03/29 12:43:06;;;;;;;2.83;1.25;;;21.60;37.20;;;;;;5057603;28;20538;-69
2021/03/29 12:45:33;;;;;;;4.65;1.17;;;21.70;37.20;;;;;;5069009;28;20048;-69
2021/03/29 12:48:06;;;;;;;4.40;1.50;;;21.70;37.20;;;;;;5063651;28;20041;-69
2021/03/29 12:50:33;;;;;;;4.38;1.00;;;21.80;37.00;;;;;;5058087;28;20072;-69
2021/03/29 12:52:59;;;;;;;3.15;1.20;;;21.80;36.90;;;;;;5057717;28;20554;-66
2021/03/29 12:55:25;;;;;;;3.83;1.20;;;21.90;36.90;;;;;;5064626;28;20033;-67
2021/03/29 12:57:55;;;;;;;3.65;1.10;;;22.00;36.70;;;;;;5080857;28;20503;-69
2021/03/29 13:00:22;;;;;;;4.40;1.35;;;22.00;36.70;;;;;;5069762;28;20021;-67
2021/03/29 13:02:49;;;;;;;4.45;1.38;;;22.00;36.70;;;;;;5071629;28;20028;-67
2021/03/29 13:05:43;;;;;;;4.90;1.33;;;22.00;36.00;;;;;;5069675;28;20031;-67
2021/03/29 13:08:07;;;;;;;6.78;2.50;;;21.90;36.40;;;;;;5075164;28;20166;-66
2021/03/29 13:13:04;;;;;;;4.85;1.80;;;21.60;36.40;;;;;;5061229;28;20028;-66
2021/03/29 13:15:30;;;;;;;6.00;1.73;;;21.50;36.70;;;;;;5072032;28;20033;-66
2021/03/29 13:17:55;;;;;;;8.52;1.85;;;21.50;36.70;;;;;;5067810;28;20032;-68